createdAt,value
2018-09-12T00:11:07.226Z,17.80
2018-09-12T00:13:37.412Z,17.80
2018-09-12T00:18:36.818Z,17.70
2018-09-12T00:31:04.620Z,18.00
2018-09-12T00:33:34.667Z,18.00
2018-09-12T00:38:34.023Z,18.10
2018-09-12T00:41:05.715Z,18.00
2018-09-12T00:46:05.801Z,18.00
2018-09-12T00:51:05.295Z,17.90
2018-09-12T00:56:05.739Z,17.70
2018-09-12T00:58:35.807Z,17.70
2018-09-12T01:08:34.602Z,17.80
2018-09-12T01:13:34.077Z,17.80
2018-09-12T01:18:33.492Z,17.70
2018-09-12T01:21:04.588Z,17.80
2018-09-12T01:36:01.713Z,17.60
2018-09-12T01:38:31.777Z,17.50
2018-09-12T01:41:01.813Z,17.50
2018-09-12T01:43:33.410Z,17.60
2018-09-12T01:48:33.398Z,17.70
2018-09-12T01:51:06.176Z,17.70
2018-09-12T01:53:36.106Z,17.70
2018-09-12T01:56:06.142Z,17.60
2018-09-12T02:08:34.432Z,17.60
2018-09-12T02:11:04.505Z,17.50
2018-09-12T02:13:34.558Z,17.40
2018-09-12T02:16:04.580Z,17.40
2018-09-12T02:21:04.816Z,17.30
2018-09-12T02:23:34.849Z,17.70
2018-09-12T02:26:04.834Z,17.20
2018-09-12T02:33:33.765Z,17.20
2018-09-12T02:38:38.635Z,17.30
2018-09-12T02:41:08.628Z,17.30
2018-09-12T02:46:08.037Z,17.30
2018-09-12T02:53:43.408Z,16.90
2018-09-12T02:58:49.966Z,17.00
2018-09-12T03:07:04.288Z,17.00
2018-09-12T03:19:32.183Z,17.20
2018-09-12T03:29:30.543Z,17.10
2018-09-12T03:32:01.146Z,16.80
2018-09-12T03:34:31.795Z,16.10
2018-09-12T03:56:57.471Z,15.30
2018-09-12T03:59:27.513Z,15.30
2018-09-12T04:01:57.512Z,15.20
2018-09-12T04:04:27.535Z,15.30
2018-09-12T04:06:57.792Z,15.50
2018-09-12T04:09:27.815Z,15.40
2018-09-12T04:16:56.732Z,15.50
2018-09-12T04:26:55.037Z,15.50
2018-09-12T04:29:25.988Z,15.50
2018-09-12T04:36:55.072Z,15.60
2018-09-12T04:39:25.061Z,15.60
2018-09-12T04:41:55.085Z,15.70
2018-09-12T05:06:50.707Z,15.60
2018-09-12T05:09:20.789Z,15.70
2018-09-12T05:11:50.821Z,15.70
2018-09-12T05:14:20.859Z,15.80
2018-09-12T05:24:19.311Z,15.70
2018-09-12T05:31:48.423Z,15.70
2018-09-12T06:04:12.291Z,15.80
2018-09-12T06:06:42.342Z,15.80
2018-09-12T06:14:11.319Z,16.00
2018-09-12T06:29:37.449Z,15.70
2018-09-12T06:32:07.723Z,15.80
2018-09-12T06:39:36.627Z,15.90
2018-09-12T06:42:06.787Z,16.10
2018-09-12T07:12:02.883Z,16.00
2018-09-12T07:17:02.386Z,16.20
2018-09-12T07:19:32.383Z,16.20
2018-09-12T07:22:02.386Z,16.30
2018-09-12T07:29:31.265Z,16.40
2018-09-12T07:32:01.226Z,16.40
2018-09-12T07:49:28.796Z,16.10
2018-09-12T07:51:58.737Z,16.00
2018-09-12T08:01:59.787Z,16.60
2018-09-12T08:06:59.290Z,16.60
2018-09-12T08:09:29.458Z,16.60
2018-09-12T08:39:23.754Z,17.00
2018-09-12T08:41:53.781Z,16.80
2018-09-12T08:44:23.737Z,16.70
2018-09-12T08:49:23.239Z,16.50
2018-09-12T08:56:52.184Z,16.70
2018-09-12T08:59:22.200Z,16.80
2018-09-12T09:01:52.191Z,17.00
2018-09-12T09:04:22.188Z,16.90
2018-09-12T09:06:52.331Z,16.90
2018-09-12T09:09:22.319Z,16.70
2018-09-12T09:24:19.553Z,17.00
2018-09-12T09:29:19.029Z,17.10
2018-09-12T09:41:48.376Z,16.90
2018-09-12T09:44:18.339Z,17.00
2018-09-12T09:46:48.419Z,17.00
2018-09-12T09:51:47.962Z,17.30
2018-09-12T09:54:17.928Z,17.10
2018-09-12T09:56:47.982Z,17.20
2018-09-12T10:14:45.135Z,17.10
2018-09-12T10:17:15.302Z,17.10
2018-09-12T10:22:14.716Z,17.10
2018-09-12T10:24:44.706Z,17.10
2018-09-12T10:27:14.784Z,17.00
2018-09-12T10:32:14.304Z,16.90
2018-09-12T10:34:44.929Z,16.90
2018-09-12T10:39:45.738Z,16.90
2018-09-12T10:42:15.693Z,16.90
2018-09-12T10:49:44.461Z,16.50
2018-09-12T10:52:14.884Z,16.20
2018-09-12T10:54:44.857Z,15.90
2018-09-12T11:02:15.478Z,16.50
2018-09-12T11:09:44.499Z,16.90
2018-09-12T11:14:43.974Z,17.20
2018-09-12T11:24:42.334Z,17.90
2018-09-12T11:34:40.835Z,18.10
2018-09-12T11:39:41.170Z,17.90
2018-09-12T11:49:40.812Z,17.20
2018-09-12T11:52:10.788Z,17.30
2018-09-12T12:04:39.460Z,17.30
2018-09-12T12:12:08.478Z,17.20
2018-09-12T12:17:08.144Z,17.30
2018-09-12T12:19:38.118Z,17.20
2018-09-12T12:24:37.806Z,17.30
2018-09-12T12:29:37.378Z,17.70
2018-09-12T12:34:37.529Z,18.00
2018-09-12T12:52:04.601Z,18.50
2018-09-12T12:54:34.768Z,18.40
2018-09-12T13:49:27.924Z,18.00
2018-09-12T13:54:27.468Z,17.70
2018-09-12T13:59:27.070Z,17.40
2018-09-12T14:04:26.632Z,17.10
2018-09-12T14:06:57.329Z,16.90
2018-09-12T14:11:57.018Z,17.10
2018-09-12T14:14:27.135Z,17.20
2018-09-12T14:16:57.254Z,17.30
2018-09-12T14:19:27.274Z,17.30
2018-09-12T14:31:55.381Z,17.40
2018-09-12T14:41:53.810Z,16.70
2018-09-12T14:51:52.905Z,15.80
2018-09-12T15:36:47.724Z,16.70
2018-09-12T15:44:16.960Z,16.70
2018-09-12T16:11:43.589Z,16.90
2018-09-12T16:29:10.291Z,16.70
2018-09-12T16:31:40.954Z,16.80
2018-09-12T16:46:41.875Z,16.70
2018-09-12T16:51:41.404Z,16.50
2018-09-12T16:56:40.833Z,16.50
2018-09-12T17:01:40.287Z,16.60
2018-09-12T17:16:38.910Z,16.80
2018-09-12T17:21:38.357Z,16.80
2018-09-12T17:26:38.017Z,16.80
2018-09-12T17:29:08.011Z,16.70
2018-09-12T17:41:36.769Z,16.40
2018-09-12T17:46:36.271Z,16.30
2018-09-12T17:49:06.316Z,16.30
2018-09-12T17:54:05.730Z,16.40
2018-09-12T18:06:33.466Z,16.10
2018-09-12T18:09:04.054Z,16.10
2018-09-12T18:14:03.440Z,16.10
2018-09-12T18:19:02.984Z,15.30
2018-09-12T18:24:02.442Z,16.00
2018-09-12T18:29:01.966Z,15.90
2018-09-12T18:31:32.030Z,15.90
2018-09-12T18:36:31.463Z,16.00
2018-09-12T18:39:01.533Z,16.10
2018-09-12T18:41:33.537Z,16.00
2018-09-12T18:44:03.560Z,15.90
2018-09-12T18:46:33.626Z,15.80
2018-09-12T18:51:33.095Z,15.70
2018-09-12T18:56:32.644Z,15.60
2018-09-12T18:59:02.979Z,15.70
2018-09-12T19:09:01.528Z,15.60
2018-09-12T19:14:01.218Z,15.50
2018-09-12T19:23:59.814Z,15.40
2018-09-12T19:26:29.978Z,15.40
2018-09-12T19:29:01.295Z,15.40
2018-09-12T19:36:30.201Z,15.30
2018-09-12T19:43:59.223Z,15.30
2018-09-12T19:49:17.397Z,15.30
2018-09-12T19:51:47.423Z,15.30
2018-09-12T19:56:46.823Z,15.40
2018-09-12T20:06:45.970Z,15.30
2018-09-12T20:19:13.823Z,15.20
2018-09-12T20:26:42.936Z,15.10
2018-09-12T20:29:13.263Z,15.10
2018-09-12T20:36:42.660Z,15.10
2018-09-12T20:41:42.589Z,15.00
2018-09-12T20:44:12.628Z,14.90
2018-09-12T20:49:12.054Z,15.00
2018-09-12T20:51:44.718Z,15.00
2018-09-12T20:54:16.326Z,14.90
2018-09-12T21:04:15.733Z,14.80
2018-09-12T21:16:45.358Z,14.70
2018-09-12T21:24:14.329Z,14.70
2018-09-12T21:26:44.408Z,14.60
2018-09-12T21:29:14.427Z,14.60
2018-09-12T21:39:12.805Z,14.60
2018-09-12T21:46:41.621Z,14.60
2018-09-12T21:59:10.636Z,14.40
2018-09-12T22:01:40.620Z,14.40
2018-09-12T22:06:40.043Z,14.40
2018-09-12T22:11:41.591Z,14.20
2018-09-12T22:14:11.551Z,14.20
2018-09-12T22:39:09.294Z,14.30
2018-09-12T22:41:45.739Z,14.20
2018-09-12T22:49:27.124Z,14.20
2018-09-12T22:52:09.040Z,14.30
2018-09-12T22:54:51.076Z,14.30
2018-09-12T22:59:58.438Z,14.10
2018-09-12T23:09:56.705Z,14.10
2018-09-12T23:12:26.651Z,14.10
2018-09-12T23:17:26.044Z,14.00
2018-09-12T23:19:56.039Z,14.00
2018-09-12T23:22:26.154Z,13.90
2018-09-12T23:24:56.225Z,13.90
2018-09-12T23:27:26.210Z,13.80
2018-09-12T23:39:53.920Z,13.90
2018-09-12T23:44:54.012Z,13.80
2018-09-12T23:52:22.946Z,13.60
2018-09-12T23:54:52.927Z,13.60
2018-09-12T23:59:52.390Z,13.60
